Aviation Digital Data Service (ADDS)

Output produced by METARs form (0006 UTC 22 November 2014)
found at http://www.aviationweather.gov/adds/metars/
 
KSAV 212353Z 08004KT 10SM CLR 13/07 A3040 RMK AO2 SLP292 T01280067 10222 20128 51016